Time;durP1;ratioP1;P1;durP2;ratioP2;P2;SDS_P1;SDS_P2;PMS_P1;PMS_P2;Temp;Humidity;BMP_temperature;BMP_pressure;BME280_temperature;BME280_humidity;BME280_pressure;Samples;Min_cycle;Max_cycle;Signal;HPM_P1;HPM_P2
2022/05/10 00:01:26;;;;;;;7.07;5.60;;;;;;;12.00;100.00;96456.22;5003256;28;24523;-73
2022/05/10 00:03:52;;;;;;;8.23;6.65;;;;;;;11.96;100.00;96449.53;5007772;28;24795;-73
2022/05/10 00:06:19;;;;;;;7.38;6.13;;;;;;;11.96;100.00;96455.53;4990725;28;24441;-73
2022/05/10 00:08:47;;;;;;;6.82;5.60;;;;;;;11.95;100.00;96447.84;4999460;28;24520;-73
2022/05/10 00:11:14;;;;;;;8.27;5.85;;;;;;;12.01;100.00;96447.47;5000245;28;24979;-73
2022/05/10 00:13:40;;;;;;;6.18;5.57;;;;;;;12.00;100.00;96448.41;5009614;28;24452;-73
2022/05/10 00:16:09;;;;;;;5.93;5.35;;;;;;;11.98;100.00;96452.88;4994161;28;24441;-73
2022/05/10 00:18:35;;;;;;;7.80;5.70;;;;;;;11.89;100.00;96445.59;5000619;28;24447;-73
2022/05/10 00:21:02;;;;;;;9.48;5.78;;;;;;;11.80;100.00;96445.19;5013647;28;24436;-73
2022/05/10 00:23:28;;;;;;;6.22;5.63;;;;;;;11.86;100.00;96446.59;4999526;28;24445;-73
2022/05/10 00:25:56;;;;;;;8.73;5.80;;;;;;;11.89;100.00;96453.38;5002502;28;24436;-73
2022/05/10 00:28:22;;;;;;;6.35;5.72;;;;;;;11.91;100.00;96442.00;5008838;28;24503;-73
2022/05/10 00:30:49;;;;;;;6.05;5.20;;;;;;;11.90;100.00;96436.88;4994032;28;24507;-73
2022/05/10 00:33:20;;;;;;;6.35;5.70;;;;;;;11.98;100.00;96437.31;4993945;28;24525;-73
2022/05/10 00:35:46;;;;;;;6.95;6.18;;;;;;;11.97;100.00;96438.22;5009798;28;24527;-73
2022/05/10 00:38:13;;;;;;;6.82;6.07;;;;;;;11.71;100.00;96435.31;5012657;28;24523;-73
2022/05/10 00:40:39;;;;;;;8.32;6.63;;;;;;;11.56;100.00;96446.53;5007021;28;24441;-73
2022/05/10 00:43:16;;;;;;;10.45;6.65;;;;;;;11.44;100.00;96437.69;4993630;28;24448;-73
2022/05/10 00:45:49;;;;;;;8.80;6.35;;;;;;;11.46;100.00;96438.47;5008510;28;24548;-73
2022/05/10 00:48:25;;;;;;;12.57;6.43;;;;;;;11.49;100.00;96442.63;4996614;28;24527;-73
2022/05/10 00:50:56;;;;;;;8.18;6.18;;;;;;;11.52;100.00;96438.09;5004650;28;24448;-73
2022/05/10 00:53:28;;;;;;;6.47;5.88;;;;;;;11.49;100.00;96435.66;5004595;28;24834;-73
2022/05/10 00:55:59;;;;;;;6.97;5.88;;;;;;;11.49;100.00;96427.88;4996845;28;24448;-73
2022/05/10 00:58:38;;;;;;;6.78;6.03;;;;;;;11.47;100.00;96421.13;4993336;28;25009;-73
2022/05/10 01:01:05;;;;;;;7.53;6.37;;;;;;;11.50;100.00;96423.56;4994612;28;24446;-73
2022/05/10 01:03:35;;;;;;;7.32;5.95;;;;;;;11.48;100.00;96420.22;4992867;28;24437;-73
2022/05/10 01:06:07;;;;;;;10.70;5.82;;;;;;;11.50;100.00;96421.81;4999875;28;24503;-73
2022/05/10 01:08:41;;;;;;;6.35;5.75;;;;;;;11.53;100.00;96424.22;4997386;28;24448;-73
2022/05/10 01:11:11;;;;;;;6.93;6.20;;;;;;;11.54;100.00;96419.88;5011656;28;24985;-73
2022/05/10 01:13:45;;;;;;;8.57;6.40;;;;;;;11.46;100.00;96415.13;4992651;28;24440;-73
2022/05/10 01:16:14;;;;;;;6.15;5.28;;;;;;;11.53;100.00;96408.66;5005510;28;24437;-73
2022/05/10 01:18:42;;;;;;;8.10;5.60;;;;;;;11.57;100.00;96407.56;5007871;28;24436;-73
2022/05/10 01:21:25;;;;;;;6.53;5.87;;;;;;;11.39;100.00;96403.41;5007859;28;24441;-73
2022/05/10 01:24:12;;;;;;;19.50;6.18;;;;;;;11.48;100.00;96392.50;4998387;28;24455;-74
2022/05/10 01:26:52;;;;;;;6.57;5.97;;;;;;;11.22;100.00;96396.56;4993095;28;24433;-74
2022/05/10 01:29:26;;;;;;;7.15;6.45;;;;;;;11.00;100.00;96391.72;4992839;28;24455;-74
2022/05/10 01:34:43;;;;;;;8.25;6.28;;;;;;;10.74;100.00;96385.34;4996911;28;24499;-73
2022/05/10 01:37:15;;;;;;;9.73;6.80;;;;;;;10.69;100.00;96386.53;5012371;28;25035;-73
2022/05/10 01:39:50;;;;;;;7.90;6.20;;;;;;;10.84;100.00;96388.28;5000706;28;24437;-73
2022/05/10 01:42:20;;;;;;;6.32;5.60;;;;;;;10.92;100.00;96380.94;4992621;28;24440;-72
2022/05/10 01:44:53;;;;;;;6.68;6.07;;;;;;;10.94;100.00;96384.28;4996802;28;24440;-73
2022/05/10 01:47:26;;;;;;;9.10;6.45;;;;;;;10.83;100.00;96387.47;5003377;28;24993;-73
2022/05/10 01:49:56;;;;;;;7.35;6.55;;;;;;;10.83;100.00;96389.22;4992852;28;24459;-73
2022/05/10 01:52:28;;;;;;;8.43;6.03;;;;;;;10.77;100.00;96382.59;5008418;28;24444;-73
2022/05/10 01:55:05;;;;;;;6.10;5.50;;;;;;;10.75;100.00;96383.59;5006726;28;24441;-73
2022/05/10 01:57:34;;;;;;;7.05;6.35;;;;;;;10.69;100.00;96378.75;5002168;28;24433;-73
2022/05/10 02:00:10;;;;;;;6.43;5.82;;;;;;;10.68;100.00;96384.81;4998308;28;24842;-73
2022/05/10 02:02:39;;;;;;;8.88;6.65;;;;;;;10.77;100.00;96380.00;4995670;28;24445;-73
2022/05/10 02:05:12;;;;;;;9.67;6.20;;;;;;;10.79;100.00;96379.91;5011581;28;24463;-73
2022/05/10 02:07:42;;;;;;;8.55;5.85;;;;;;;10.86;100.00;96376.06;5011288;28;24443;-73
2022/05/10 02:10:15;;;;;;;7.43;6.47;;;;;;;10.87;100.00;96375.19;5011665;28;24461;-73
2022/05/10 02:12:48;;;;;;;6.68;5.97;;;;;;;10.86;100.00;96379.53;4995107;28;24441;-73
2022/05/10 02:15:22;;;;;;;7.85;6.72;;;;;;;10.82;100.00;96382.34;5006151;28;24433;-73
2022/05/10 02:17:51;;;;;;;13.35;6.28;;;;;;;10.82;100.00;96378.00;4992429;28;24553;-73
2022/05/10 02:20:23;;;;;;;9.25;6.50;;;;;;;10.70;100.00;96383.00;5006290;28;24428;-73
2022/05/10 02:22:58;;;;;;;7.15;6.50;;;;;;;10.53;100.00;96378.72;4994365;28;24451;-73
2022/05/10 02:25:30;;;;;;;9.27;6.73;;;;;;;10.49;100.00;96377.19;5011162;28;24577;-73
2022/05/10 02:28:02;;;;;;;8.88;6.95;;;;;;;10.47;100.00;96372.13;5010840;28;25071;-72
2022/05/10 02:30:35;;;;;;;10.77;7.20;;;;;;;10.34;100.00;96371.91;4999313;28;24893;-73
2022/05/10 02:33:07;;;;;;;7.88;6.70;;;;;;;10.24;100.00;96370.69;5006511;28;24819;-73
2022/05/10 02:35:35;;;;;;;8.15;6.90;;;;;;;10.27;100.00;96365.41;4991513;28;24498;-73
2022/05/10 02:38:01;;;;;;;9.00;7.20;;;;;;;10.31;100.00;96366.06;5002578;28;25104;-73
2022/05/10 02:40:28;;;;;;;7.28;6.57;;;;;;;10.35;100.00;96363.25;5011124;28;24428;-73
2022/05/10 02:42:54;;;;;;;6.97;6.38;;;;;;;10.34;100.00;96368.47;4992191;28;24468;-73
2022/05/10 02:45:21;;;;;;;9.95;6.50;;;;;;;10.35;100.00;96365.00;5002399;28;24474;-73
2022/05/10 02:47:51;;;;;;;6.75;5.70;;;;;;;10.32;100.00;96362.56;5002232;28;24488;-73
2022/05/10 02:50:24;;;;;;;7.07;5.78;;;;;;;10.34;100.00;96366.72;4991559;28;24453;-72
2022/05/10 02:52:51;;;;;;;6.77;6.17;;;;;;;10.40;100.00;96363.00;5006875;28;24532;-73
2022/05/10 02:55:19;;;;;;;6.40;5.85;;;;;;;10.37;100.00;96360.56;4995839;28;24795;-73
2022/05/10 02:57:49;;;;;;;8.23;6.13;;;;;;;10.35;100.00;96357.22;5009322;28;24443;-73
2022/05/10 03:00:17;;;;;;;7.80;5.93;;;;;;;10.34;100.00;96361.53;4998988;28;24444;-73
2022/05/10 03:02:49;;;;;;;7.50;6.35;;;;;;;10.34;100.00;96361.53;5006836;28;25001;-73
2022/05/10 03:05:16;;;;;;;6.00;5.50;;;;;;;10.34;100.00;96366.72;4991327;28;24568;-73
2022/05/10 03:07:43;;;;;;;6.70;5.95;;;;;;;10.39;100.00;96359.56;4998228;28;24609;-73
2022/05/10 03:10:10;;;;;;;6.53;5.85;;;;;;;10.23;100.00;96361.25;5010468;28;24499;-73
2022/05/10 03:12:37;;;;;;;7.57;6.18;;;;;;;10.16;100.00;96357.31;4996089;28;24448;-73
2022/05/10 03:15:04;;;;;;;6.80;6.10;;;;;;;10.14;100.00;96357.38;5008228;28;24974;-73
2022/05/10 03:17:31;;;;;;;6.72;6.13;;;;;;;10.13;100.00;96349.72;4991327;28;24436;-73
2022/05/10 03:19:57;;;;;;;7.10;6.38;;;;;;;10.15;100.00;96358.22;4999068;28;24439;-73
2022/05/10 03:22:25;;;;;;;6.60;6.00;;;;;;;10.13;100.00;96353.13;4998511;28;24445;-73
2022/05/10 03:24:51;;;;;;;9.38;7.03;;;;;;;10.21;100.00;96354.50;4990967;28;24511;-73
2022/05/10 03:27:19;;;;;;;7.05;6.32;;;;;;;10.06;100.00;96354.38;5010376;28;24440;-73
2022/05/10 03:29:45;;;;;;;6.55;5.95;;;;;;;10.00;100.00;96353.84;5010478;28;24452;-73
2022/05/10 03:32:12;;;;;;;12.00;6.53;;;;;;;10.01;100.00;96361.53;5010306;28;24499;-73
2022/05/10 03:34:58;;;;;;;5.80;5.30;;;;;;;10.01;100.00;96355.50;4996095;28;25022;-73
2022/05/10 03:37:29;;;;;;;6.78;6.15;;;;;;;10.09;100.00;96355.97;4994311;28;24819;-73
2022/05/10 03:39:56;;;;;;;7.05;6.20;;;;;;;9.96;100.00;96353.16;5005168;28;24528;-73
2022/05/10 03:42:23;;;;;;;7.10;6.40;;;;;;;9.85;100.00;96358.03;4999686;28;24775;-73
2022/05/10 03:44:52;;;;;;;7.22;6.18;;;;;;;9.69;100.00;96355.38;4993800;28;24502;-73
2022/05/10 03:47:19;;;;;;;6.85;6.25;;;;;;;9.71;100.00;96350.97;5010323;28;24626;-73
2022/05/10 03:49:46;;;;;;;7.20;6.40;;;;;;;9.76;100.00;96353.34;5000077;28;24459;-72
2022/05/10 03:52:13;;;;;;;7.95;6.50;;;;;;;9.75;100.00;96349.88;5014032;28;20860;-73
2022/05/10 03:54:41;;;;;;;6.97;6.30;;;;;;;9.83;100.00;96347.78;5000425;28;25026;-73
2022/05/10 03:57:07;;;;;;;8.10;6.65;;;;;;;9.80;100.00;96352.28;4994820;28;24433;-73
2022/05/10 03:59:34;;;;;;;6.38;5.80;;;;;;;9.87;100.00;96362.22;5013910;28;24436;-73
2022/05/10 04:02:00;;;;;;;7.70;6.80;;;;;;;9.92;100.00;96360.22;5013259;28;24440;-73
2022/05/10 04:04:27;;;;;;;7.22;6.22;;;;;;;9.90;100.00;96356.91;5010939;28;24494;-73
2022/05/10 04:06:53;;;;;;;7.60;5.60;;;;;;;9.90;100.00;96359.50;5010314;28;24440;-73
2022/05/10 04:09:20;;;;;;;6.93;6.22;;;;;;;9.93;100.00;96355.88;4994506;28;21186;-73
2022/05/10 04:11:47;;;;;;;6.57;5.95;;;;;;;9.85;100.00;96352.88;5004458;28;24445;-73
2022/05/10 04:14:14;;;;;;;7.47;6.55;;;;;;;9.79;100.00;96355.75;5011327;28;20862;-72
2022/05/10 04:16:41;;;;;;;6.50;5.80;;;;;;;9.74;100.00;96350.81;4995281;28;24532;-72
2022/05/10 04:19:07;;;;;;;8.43;6.78;;;;;;;9.75;100.00;96346.47;4994830;28;25037;-72
2022/05/10 04:21:34;;;;;;;7.25;6.55;;;;;;;9.75;100.00;96343.88;5002415;28;24436;-72
2022/05/10 04:24:00;;;;;;;7.18;6.57;;;;;;;9.75;100.00;96341.28;5010511;28;24540;-72
2022/05/10 04:26:27;;;;;;;10.73;6.57;;;;;;;9.78;100.00;96336.81;4994928;28;20787;-72
2022/05/10 04:28:55;;;;;;;6.65;6.05;;;;;;;9.78;100.00;96339.41;4994717;28;24509;-72
2022/05/10 04:31:22;;;;;;;7.38;6.68;;;;;;;9.91;100.00;96340.47;5002131;28;20841;-72
2022/05/10 04:33:48;;;;;;;6.47;5.70;;;;;;;10.04;100.00;96345.00;5017203;28;25151;-72
2022/05/10 04:36:15;;;;;;;7.80;5.68;;;;;;;10.02;100.00;96346.84;5005319;28;24795;-72
2022/05/10 04:38:41;;;;;;;6.70;5.93;;;;;;;10.16;100.00;96331.44;4994519;28;24994;-72
2022/05/10 04:41:26;;;;;;;6.88;6.22;;;;;;;10.22;100.00;96336.28;4997236;28;24433;-74
2022/05/10 04:43:56;;;;;;;7.55;6.10;;;;;;;10.28;100.00;96338.59;5001919;28;24445;-74
2022/05/10 04:46:23;;;;;;;8.43;7.30;;;;;;;10.15;100.00;96337.50;5008065;28;24436;-74
2022/05/10 04:48:49;;;;;;;7.65;6.75;;;;;;;10.16;100.00;96331.44;5013590;28;24416;-74
2022/05/10 04:51:16;;;;;;;8.00;6.60;;;;;;;10.21;100.00;96331.19;5013739;28;24978;-74
2022/05/10 04:53:42;;;;;;;7.90;7.10;;;;;;;10.28;100.00;96337.75;5013668;28;20851;-74
2022/05/10 04:56:09;;;;;;;7.30;6.60;;;;;;;10.22;100.00;96349.22;5012725;28;24440;-74
2022/05/10 04:58:35;;;;;;;8.35;6.97;;;;;;;10.28;100.00;96348.94;5000198;28;24437;-74
2022/05/10 05:01:06;;;;;;;11.32;7.15;;;;;;;10.33;100.00;96346.09;5010993;28;24424;-74
2022/05/10 05:03:33;;;;;;;9.35;7.65;;;;;;;10.54;100.00;96352.75;5013820;28;24799;-74
2022/05/10 05:06:00;;;;;;;10.70;7.32;;;;;;;10.78;100.00;96347.16;5004588;28;24437;-72
2022/05/10 05:08:26;;;;;;;8.75;6.80;;;;;;;10.95;100.00;96356.63;5009804;28;24448;-72
2022/05/10 05:10:54;;;;;;;10.65;7.47;;;;;;;11.12;100.00;96359.09;4993387;28;24464;-72
2022/05/10 05:13:21;;;;;;;9.82;7.18;;;;;;;11.19;100.00;96362.19;4991751;28;24440;-71
2022/05/10 05:15:47;;;;;;;7.82;7.03;;;;;;;11.17;100.00;96364.88;4993263;28;24804;-70
2022/05/10 05:18:15;;;;;;;7.70;7.00;;;;;;;11.31;100.00;96366.66;4993639;28;24453;-73
2022/05/10 05:20:43;;;;;;;6.88;6.28;;;;;;;11.43;100.00;96358.22;4993706;28;24436;-72
2022/05/10 05:23:11;;;;;;;8.82;6.68;;;;;;;11.51;100.00;96370.75;5007464;28;24994;-72
2022/05/10 05:25:40;;;;;;;9.20;6.88;;;;;;;11.57;100.00;96366.06;5003582;28;24439;-72
2022/05/10 05:28:07;;;;;;;8.70;7.20;;;;;;;11.65;100.00;96370.81;4999660;28;25269;-72
2022/05/10 05:30:34;;;;;;;7.90;6.65;;;;;;;11.73;100.00;96376.38;4992828;28;24862;-72
2022/05/10 05:33:01;;;;;;;7.65;6.85;;;;;;;11.80;100.00;96367.31;4992573;28;25012;-73
2022/05/10 05:35:29;;;;;;;7.82;7.03;;;;;;;11.92;100.00;96373.59;4992797;28;24444;-73
2022/05/10 05:37:56;;;;;;;11.15;7.03;;;;;;;12.01;100.00;96369.59;5003010;28;24436;-73
2022/05/10 05:40:24;;;;;;;7.50;6.70;;;;;;;12.11;100.00;96368.97;4996207;28;24488;-73
2022/05/10 05:42:52;;;;;;;7.80;7.00;;;;;;;12.11;100.00;96376.75;4992220;28;24452;-74
2022/05/10 05:45:22;;;;;;;7.63;6.85;;;;;;;12.11;100.00;96378.53;5007614;28;24435;-73
2022/05/10 05:47:48;;;;;;;10.00;7.60;;;;;;;12.22;100.00;96377.91;5000907;28;24437;-72
2022/05/10 05:50:16;;;;;;;10.33;7.83;;;;;;;12.19;100.00;96381.50;5008620;28;24818;-72
2022/05/10 05:52:45;;;;;;;9.60;7.30;;;;;;;12.14;100.00;96380.13;4991518;28;24452;-72
2022/05/10 05:55:12;;;;;;;8.90;7.70;;;;;;;12.34;100.00;96377.16;4992120;28;24448;-72
2022/05/10 05:57:39;;;;;;;8.63;7.72;;;;;;;12.60;100.00;96368.59;5000702;28;24851;-72
2022/05/10 06:00:08;;;;;;;10.33;7.70;;;;;;;12.76;100.00;96371.13;5010009;28;25004;-72
2022/05/10 06:02:35;;;;;;;13.02;7.95;;;;;;;12.85;100.00;96369.69;5009959;28;24491;-72
2022/05/10 06:05:02;;;;;;;12.00;7.80;;;;;;;12.87;100.00;96365.25;5011088;28;24428;-74
2022/05/10 06:07:28;;;;;;;8.05;7.25;;;;;;;12.82;100.00;96369.88;5011277;28;24479;-71
2022/05/10 06:09:56;;;;;;;10.95;7.80;;;;;;;12.72;100.00;96376.56;5008556;28;24452;-71
2022/05/10 06:12:23;;;;;;;10.20;7.90;;;;;;;12.76;100.00;96375.50;4994137;28;24444;-72
2022/05/10 06:14:49;;;;;;;8.63;7.35;;;;;;;12.79;100.00;96373.53;5001081;28;24428;-72
2022/05/10 06:17:16;;;;;;;8.10;7.13;;;;;;;12.87;100.00;96369.59;4992123;28;24536;-71
2022/05/10 06:19:44;;;;;;;9.00;7.68;;;;;;;12.87;100.00;96367.00;4992322;28;24847;-73
2022/05/10 06:22:12;;;;;;;9.00;8.07;;;;;;;12.97;100.00;96368.09;4992495;28;24537;-73
2022/05/10 06:24:39;;;;;;;11.98;8.07;;;;;;;12.95;100.00;96367.38;5004225;28;24820;-73
2022/05/10 06:27:11;;;;;;;8.18;7.28;;;;;;;13.24;100.00;96366.41;4996909;28;25152;-72
2022/05/10 06:29:37;;;;;;;9.27;7.03;;;;;;;13.61;100.00;96364.03;5011317;28;24432;-73
2022/05/10 06:32:05;;;;;;;9.30;7.53;;;;;;;13.95;100.00;96365.22;5009686;28;24463;-73
2022/05/10 06:34:31;;;;;;;9.18;7.50;;;;;;;14.10;100.00;96375.56;5003432;28;24491;-73
2022/05/10 06:36:57;;;;;;;12.77;8.68;;;;;;;14.19;100.00;96372.31;4995801;28;24440;-73
2022/05/10 06:39:24;;;;;;;9.82;7.30;;;;;;;14.24;100.00;96368.47;5009331;28;25076;-72
2022/05/10 06:41:50;;;;;;;9.00;7.72;;;;;;;14.24;100.00;96367.66;5007195;28;24443;-73
2022/05/10 06:44:18;;;;;;;8.80;7.50;;;;;;;14.31;100.00;96361.06;5008390;28;24441;-72
2022/05/10 06:46:45;;;;;;;9.13;7.63;;;;;;;14.52;100.00;96364.00;4998151;28;24448;-72
2022/05/10 06:49:11;;;;;;;9.23;7.32;;;;;;;14.60;100.00;96363.47;4997616;28;24982;-72
2022/05/10 06:51:40;;;;;;;8.73;7.50;;;;;;;14.70;100.00;96360.13;4997302;28;24463;-72
2022/05/10 06:54:07;;;;;;;8.97;7.93;;;;;;;14.79;100.00;96356.03;5010529;28;24443;-73
2022/05/10 06:56:33;;;;;;;8.45;7.28;;;;;;;15.10;100.00;96364.31;5011255;28;24499;-73
2022/05/10 06:58:59;;;;;;;9.50;7.70;;;;;;;15.24;100.00;96361.56;5006120;28;24868;-73
2022/05/10 07:01:27;;;;;;;14.13;7.72;;;;;;;15.34;99.47;96357.31;5000019;28;24437;-73
2022/05/10 07:03:54;;;;;;;8.63;7.47;;;;;;;15.60;98.89;96363.25;4999911;28;24432;-72
2022/05/10 07:06:23;;;;;;;9.18;7.03;;;;;;;15.99;96.73;96353.44;5011260;28;24432;-73
2022/05/10 07:08:50;;;;;;;9.45;7.03;;;;;;;16.21;95.83;96365.72;4996603;28;24464;-73
2022/05/10 07:11:17;;;;;;;8.70;7.00;;;;;;;16.29;94.35;96363.34;4991549;28;24461;-73
2022/05/10 07:13:44;;;;;;;14.65;6.80;;;;;;;16.52;94.31;96355.53;4992272;28;24487;-73
2022/05/10 07:16:10;;;;;;;7.43;6.72;;;;;;;16.69;93.20;96348.03;4998612;28;24429;-73
2022/05/10 07:18:38;;;;;;;7.90;6.63;;;;;;;16.88;92.08;96354.47;5011298;28;24432;-73
2022/05/10 07:21:05;;;;;;;8.38;6.90;;;;;;;17.37;88.32;96350.56;5016913;28;24490;-73
2022/05/10 07:23:32;;;;;;;8.40;6.87;;;;;;;17.72;86.13;96341.59;5016294;28;24433;-73
2022/05/10 07:25:59;;;;;;;7.07;6.10;;;;;;;17.95;84.35;96353.69;5003768;28;24985;-73
2022/05/10 07:28:29;;;;;;;7.65;6.28;;;;;;;17.85;82.78;96358.84;5017223;28;24482;-73
2022/05/10 07:30:56;;;;;;;9.07;6.50;;;;;;;17.98;83.30;96357.81;5017563;28;24595;-73
2022/05/10 07:33:22;;;;;;;9.63;6.30;;;;;;;18.30;82.83;96349.91;5016935;28;24440;-73
2022/05/10 07:38:34;;;;;;;8.88;5.70;;;;;;;18.85;79.90;96350.47;5014325;28;25098;-73
2022/05/10 07:41:01;;;;;;;8.10;5.30;;;;;;;19.00;78.95;96354.38;4997870;28;24420;-73
2022/05/10 07:43:27;;;;;;;9.13;6.00;;;;;;;19.15;78.41;96359.25;5008848;28;24444;-73
2022/05/10 07:45:54;;;;;;;8.18;5.63;;;;;;;19.12;76.40;96354.25;5017785;28;24440;-73
2022/05/10 07:48:22;;;;;;;8.55;5.90;;;;;;;19.29;78.87;96350.97;5001875;28;24424;-73
2022/05/10 07:50:51;;;;;;;6.93;5.30;;;;;;;19.48;73.60;96356.25;5005935;28;24464;-72
2022/05/10 07:53:18;;;;;;;8.82;5.47;;;;;;;19.88;70.36;96354.50;5017029;28;24420;-73
2022/05/10 07:55:45;;;;;;;9.10;5.87;;;;;;;19.87;70.72;96353.66;5016504;28;25063;-73
2022/05/10 07:58:12;;;;;;;7.10;5.63;;;;;;;19.92;69.88;96348.00;5016997;28;24463;-73
2022/05/10 08:00:40;;;;;;;8.15;5.43;;;;;;;20.08;69.17;96356.13;5007406;28;24433;-73
2022/05/10 08:03:12;;;;;;;8.98;6.28;;;;;;;20.07;70.03;96354.47;4998494;28;24436;-73
2022/05/10 08:05:39;;;;;;;9.73;6.03;;;;;;;19.72;69.94;96345.34;5015185;28;25001;-74
2022/05/10 08:08:08;;;;;;;8.38;6.00;;;;;;;19.85;70.52;96345.09;5006045;28;24455;-73
2022/05/10 08:10:34;;;;;;;8.95;5.32;;;;;;;19.79;69.83;96348.25;5008321;28;24457;-72
2022/05/10 08:13:01;;;;;;;6.00;4.72;;;;;;;19.80;69.42;96342.88;5009664;28;25016;-73
2022/05/10 08:15:28;;;;;;;8.30;4.83;;;;;;;20.21;68.89;96348.78;5017787;28;24432;-74
2022/05/10 08:17:54;;;;;;;7.25;5.22;;;;;;;20.06;67.86;96345.75;5001402;28;24436;-74
2022/05/10 08:20:20;;;;;;;7.30;4.82;;;;;;;20.47;68.82;96338.47;5009864;28;24440;-73
2022/05/10 08:22:47;;;;;;;7.38;5.00;;;;;;;20.97;64.08;96340.78;5013101;28;24526;-74
2022/05/10 08:25:15;;;;;;;5.20;4.35;;;;;;;21.34;62.26;96344.34;5008444;28;24444;-74
2022/05/10 08:27:41;;;;;;;5.50;4.78;;;;;;;21.69;59.01;96336.44;5015427;28;24823;-73
2022/05/10 08:30:09;;;;;;;6.90;4.68;;;;;;;21.78;58.22;96339.97;4997975;28;24835;-74
2022/05/10 08:32:35;;;;;;;5.28;4.18;;;;;;;22.11;56.35;96334.97;5012020;28;24467;-75
2022/05/10 08:35:01;;;;;;;5.25;4.30;;;;;;;22.18;56.16;96341.31;5007220;28;24444;-75
2022/05/10 08:37:28;;;;;;;7.33;4.37;;;;;;;22.08;54.95;96333.47;4993553;28;25009;-73
2022/05/10 08:39:54;;;;;;;4.68;4.00;;;;;;;22.16;55.70;96335.34;5010618;28;24479;-73
2022/05/10 08:42:29;;;;;;;5.93;4.40;;;;;;;22.05;55.91;96333.75;4998507;28;24851;-74
2022/05/10 08:45:00;;;;;;;4.57;3.17;;;;;;;22.12;51.42;96333.97;5007276;28;24459;-75
2022/05/10 08:47:28;;;;;;;6.77;4.00;;;;;;;22.41;53.55;96333.72;4993762;28;24512;-75
2022/05/10 08:49:58;;;;;;;6.13;4.03;;;;;;;22.58;54.08;96326.69;5006894;28;25029;-73
2022/05/10 08:52:32;;;;;;;5.85;3.30;;;;;;;22.55;49.44;96317.31;5007089;28;24464;-73
2022/05/10 08:54:59;;;;;;;5.18;4.03;;;;;;;22.52;52.35;96328.16;4999222;28;24433;-73
2022/05/10 08:57:45;;;;;;;6.13;3.53;;;;;;;22.25;49.92;96328.31;4997598;28;24529;-73
2022/05/10 09:00:17;;;;;;;5.60;3.53;;;;;;;22.34;50.20;96330.88;4999127;28;24850;-73
2022/05/10 09:02:47;;;;;;;4.00;3.42;;;;;;;22.51;48.67;96318.59;5003025;28;24448;-73
2022/05/10 09:05:22;;;;;;;6.50;3.25;;;;;;;22.51;46.63;96323.03;4993398;28;24456;-73
2022/05/10 09:07:58;;;;;;;4.18;3.47;;;;;;;22.81;46.73;96325.19;5008096;28;24523;-73
2022/05/10 09:10:30;;;;;;;5.93;3.28;;;;;;;23.36;44.94;96329.16;5000013;28;24443;-74
2022/05/10 09:13:03;;;;;;;3.30;2.90;;;;;;;23.02;43.94;96330.06;5008957;28;24951;-74
2022/05/10 09:15:35;;;;;;;4.70;3.15;;;;;;;23.31;44.62;96323.53;4993250;28;24437;-74
2022/05/10 09:18:07;;;;;;;4.07;2.90;;;;;;;23.42;42.85;96333.81;5012295;28;24468;-73
2022/05/10 09:20:36;;;;;;;4.30;3.40;;;;;;;23.52;44.77;96323.91;5003165;28;24441;-74
2022/05/10 09:23:12;;;;;;;4.88;3.40;;;;;;;23.51;43.45;96321.41;4992676;28;24800;-74
2022/05/10 09:25:41;;;;;;;4.03;3.13;;;;;;;23.14;45.78;96318.22;5010174;28;24443;-73
2022/05/10 09:28:19;;;;;;;3.78;3.38;;;;;;;22.94;47.18;96317.66;5007377;28;24491;-73
2022/05/10 09:36:10;;;;;;;4.50;3.50;;;;;;;22.67;45.59;96321.31;5002575;28;24807;-74
2022/05/10 09:38:45;;;;;;;4.70;3.10;;;;;;;22.57;42.66;96315.31;4998371;28;24521;-74
2022/05/10 09:41:26;;;;;;;8.43;3.20;;;;;;;22.59;44.73;96320.44;5008005;28;24532;-75
2022/05/10 09:43:54;;;;;;;6.22;2.97;;;;;;;22.17;46.27;96326.44;4999230;28;25004;-73
2022/05/10 09:46:25;;;;;;;3.95;3.25;;;;;;;21.93;46.10;96321.81;5010115;28;24470;-73
2022/05/10 09:48:52;;;;;;;2.92;2.63;;;;;;;21.82;45.15;96319.41;5011326;28;24518;-74
2022/05/10 09:51:24;;;;;;;3.10;2.80;;;;;;;21.36;44.33;96322.13;5005492;28;24460;-73
2022/05/10 09:53:53;;;;;;;3.42;2.92;;;;;;;21.36;46.14;96322.13;5010608;28;25028;-74
2022/05/10 09:56:33;;;;;;;3.60;2.80;;;;;;;21.23;44.24;96313.72;5002076;28;24499;-74
2022/05/10 09:59:04;;;;;;;4.00;2.80;;;;;;;21.64;50.80;96316.78;4992235;28;25041;-74
2022/05/10 10:01:39;;;;;;;5.38;3.25;;;;;;;22.06;47.35;96311.66;5007820;28;25160;-74
2022/05/10 10:04:20;;;;;;;3.13;2.83;;;;;;;22.07;45.71;96307.25;5006469;28;24477;-75
2022/05/10 10:07:03;;;;;;;5.32;3.35;;;;;;;22.28;49.42;96309.53;4999278;28;24799;-73
2022/05/10 10:09:31;;;;;;;4.85;3.13;;;;;;;22.16;47.32;96307.16;5002855;28;24529;-73
2022/05/10 10:11:58;;;;;;;4.88;2.92;;;;;;;21.55;45.00;96307.16;4991896;28;24545;-73
2022/05/10 10:14:39;;;;;;;5.75;3.17;;;;;;;21.58;45.33;96305.06;5007489;28;24532;-72
2022/05/10 10:17:08;;;;;;;5.43;3.33;;;;;;;21.40;47.56;96299.78;4997292;28;25020;-74
2022/05/10 10:19:40;;;;;;;3.25;2.72;;;;;;;21.56;50.75;96308.81;5011197;28;24440;-73
2022/05/10 10:22:10;;;;;;;4.60;3.10;;;;;;;22.17;52.05;96298.28;5006260;28;24495;-72
2022/05/10 10:24:49;;;;;;;3.55;2.78;;;;;;;22.67;47.24;96296.72;4992280;28;24564;-72
2022/05/10 10:27:21;;;;;;;4.88;3.38;;;;;;;23.30;51.27;96298.94;5005307;28;24444;-73
2022/05/10 10:29:52;;;;;;;5.55;3.33;;;;;;;23.28;44.28;96287.69;5001878;28;24436;-73
2022/05/10 10:32:24;;;;;;;5.40;3.33;;;;;;;23.60;45.75;96296.66;4996563;28;24473;-73
2022/05/10 10:34:56;;;;;;;7.87;3.03;;;;;;;23.76;44.09;96290.56;5007784;28;24535;-73
2022/05/10 10:37:29;;;;;;;4.60;2.95;;;;;;;23.61;50.46;96285.09;4997124;28;24799;-73
2022/05/10 10:40:10;;;;;;;6.28;3.20;;;;;;;23.23;44.89;96292.63;4998280;28;24506;-73
2022/05/10 10:42:48;;;;;;;4.93;3.00;;;;;;;23.22;45.07;96287.53;5009759;28;24489;-73
2022/05/10 10:45:18;;;;;;;4.78;3.05;;;;;;;22.99;47.70;96289.94;5012876;28;24440;-73
2022/05/10 10:47:52;;;;;;;4.55;3.05;;;;;;;22.87;44.48;96287.53;5016457;28;24435;-74
2022/05/10 10:50:24;;;;;;;3.35;2.95;;;;;;;22.96;44.52;96285.00;5000839;28;24455;-74
2022/05/10 10:52:52;;;;;;;4.03;2.97;;;;;;;22.54;46.53;96283.13;5002397;28;24460;-74
2022/05/10 10:55:21;;;;;;;9.20;3.20;;;;;;;22.74;49.68;96279.25;5009023;28;24443;-72
2022/05/10 10:58:02;;;;;;;4.57;3.42;;;;;;;22.76;48.09;96279.91;5010679;28;24921;-73
2022/05/10 11:00:38;;;;;;;3.83;2.90;;;;;;;22.55;47.02;96274.25;4998682;28;24760;-73
2022/05/10 11:03:09;;;;;;;7.82;3.53;;;;;;;22.33;46.56;96279.06;5003265;28;24532;-74
2022/05/10 11:06:18;;;;;;;4.20;3.33;;;;;;;22.43;47.35;96271.88;5010469;28;24571;-74
2022/05/10 11:08:59;;;;;;;6.18;3.22;;;;;;;22.33;47.68;96263.25;4980773;28;24432;-74
2022/05/10 11:11:33;;;;;;;5.60;3.33;;;;;;;22.65;47.42;96269.63;5005268;28;24839;-74
2022/05/10 11:14:13;;;;;;;3.95;3.42;;;;;;;22.65;46.81;96262.53;4991140;28;25009;-74
2022/05/10 11:16:51;;;;;;;5.13;3.28;;;;;;;22.70;45.55;96265.56;5006427;28;24479;-74
2022/05/10 11:19:49;;;;;;;3.50;3.10;;;;;;;22.57;44.31;96264.34;4994545;28;24443;-75
2022/05/10 11:22:30;;;;;;;6.05;2.90;;;;;;;22.70;44.89;96257.63;5007238;28;24440;-73
2022/05/10 11:25:06;;;;;;;3.63;3.20;;;;;;;23.06;46.56;96252.13;4991122;28;24444;-74
2022/05/10 11:27:49;;;;;;;10.63;4.10;;;;;;;23.65;46.12;96247.56;5005098;28;24504;-74
2022/05/10 11:30:20;;;;;;;4.53;3.67;;;;;;;23.73;45.79;96253.88;5001997;28;24581;-74
2022/05/10 11:33:06;;;;;;;5.68;3.83;;;;;;;23.82;44.81;96247.59;5008865;28;24471;-73
2022/05/10 11:35:55;;;;;;;8.38;3.90;;;;;;;24.10;50.22;96237.47;4990722;28;24831;-74
2022/05/10 11:38:36;;;;;;;4.90;3.58;;;;;;;23.80;46.58;96253.03;4993354;28;24441;-73
2022/05/10 11:41:11;;;;;;;5.68;3.78;;;;;;;23.49;45.65;96247.56;5014355;28;24433;-73
2022/05/10 11:44:24;;;;;;;5.88;3.35;;;;;;;23.43;45.61;96248.22;5014202;28;24443;-74
2022/05/10 11:47:29;;;;;;;4.93;3.35;;;;;;;23.11;47.18;96241.94;5013488;28;24440;-74
2022/05/10 11:50:14;;;;;;;4.43;3.42;;;;;;;23.15;46.05;96232.69;5017951;28;24494;-74
2022/05/10 11:53:00;;;;;;;4.05;3.22;;;;;;;22.90;45.63;96234.41;5023887;28;25024;-73
2022/05/10 11:55:34;;;;;;;5.05;3.20;;;;;;;22.67;47.07;96233.34;4998984;28;24440;-73